Terminal Aerodrome Forecast
Issued by NWS

Home | Current Version | Previous Version | Graphics & Text | Print | Product List | Glossary On
Versions: 1 2 3 4 5 6 7 8 9 10 11 12 13 14
000
FTUS43 KGRB 271741
TAFAUW
TAF
KAUW 271741Z 2718/2818 28012G19KT P6SM VCSH OVC020
     FM272000 29014KT P6SM -SHRA OVC015
     FM280100 31006KT 5SM -SHRA BR OVC015
     FM280600 34007KT P6SM OVC009
     FM281200 01009G15KT P6SM BKN008
     FM281600 02012G19KT P6SM BKN025=

USA.gov is the U.S. government's official web portal to all federal, state and local government web resources and services.